Airport ICAO


19:16 UTC

10°C

Broken clouds


An affordable passengers' Moving Map for your aircraft. Made for the iPad and the iPhone
More information here

EGLF Farnborough


London UNITED KINGDOM   VFR


METAR EGLF 231850Z AUTO 10004KT 070V140 9999 SCT036/// BKN045/// 10/05 Q1032 0h26min

TAF EGLF 231701Z 2318/2320 05008KT 9999 SCT045 2h15min





NOTAMS

OPEN